Terminal Aerodrome Forecast
Issued by NWS

Home | Current Version | Previous Version | Text Only | Print | Product List | Glossary On
Versions: 1 2 3 4 5 6 7 8 9 10 11 12
000
FTUS45 KVEF 181721
TAFHND
TAF
KHND 181721Z 1818/1918 VRB05KT P6SM BKN250
     FM181900 06006KT P6SM BKN250
     FM190200 18007KT P6SM BKN250
     FM190900 20012KT P6SM BKN250
     FM191500 20015G25KT P6SM BKN250=

USA.gov is the U.S. government's official web portal to all federal, state and local government web resources and services.